createdAt,value
2022-08-12T00:02:57.823Z,97746.44
2022-08-12T00:13:18.178Z,97741.72
2022-08-12T00:23:41.234Z,97734.75
2022-08-12T00:34:01.666Z,97730.63
2022-08-12T00:44:05.479Z,97729.44
2022-08-12T00:54:07.707Z,97725.59
2022-08-12T01:04:29.398Z,97728.56
2022-08-12T01:14:32.026Z,97722.66
2022-08-12T01:24:48.979Z,97720.63
2022-08-12T01:35:15.209Z,97724.84
2022-08-12T01:45:24.589Z,97717.25
2022-08-12T01:55:33.388Z,97703.00
2022-08-12T02:05:56.824Z,97708.00
2022-08-12T02:16:10.019Z,97715.56
2022-08-12T02:26:13.131Z,97705.06
2022-08-12T02:36:16.472Z,97692.06
2022-08-12T02:46:23.573Z,97692.13
2022-08-12T02:56:28.917Z,97684.41
2022-08-12T03:06:53.101Z,97684.63
2022-08-12T03:17:13.178Z,97677.22
2022-08-12T03:27:15.182Z,97674.31
2022-08-12T03:37:19.642Z,97679.56
2022-08-12T03:47:49.493Z,97682.88
2022-08-12T03:58:09.935Z,97687.53
2022-08-12T04:08:11.997Z,97685.44
2022-08-12T04:18:16.070Z,97684.22
2022-08-12T04:28:27.883Z,97678.97
2022-08-12T04:38:31.719Z,97686.16
2022-08-12T04:48:33.215Z,97694.47
2022-08-12T04:58:34.715Z,97695.44
2022-08-12T05:08:36.906Z,97696.47
2022-08-12T05:18:39.899Z,97697.63
2022-08-12T05:28:41.604Z,97711.16
2022-08-12T05:38:57.305Z,97712.41
2022-08-12T05:49:00.730Z,97726.31
2022-08-12T05:59:07.648Z,97726.69
2022-08-12T06:09:13.239Z,97723.50
2022-08-12T06:19:16.065Z,97714.41
2022-08-12T06:30:08.023Z,97716.59
2022-08-12T06:39:41.468Z,97698.44
2022-08-12T06:49:44.356Z,97689.38
2022-08-12T06:59:45.957Z,97685.94
2022-08-12T07:10:04.217Z,97672.75
2022-08-12T07:20:29.622Z,97655.75
2022-08-12T07:30:35.034Z,97662.94
2022-08-12T07:40:36.562Z,97661.97
2022-08-12T07:50:38.313Z,97657.50
2022-08-12T08:00:42.469Z,97662.34
2022-08-12T08:10:44.743Z,97649.84
2022-08-12T08:20:46.430Z,97649.16
2022-08-12T08:30:50.452Z,97645.06
2022-08-12T08:41:11.157Z,97652.31
2022-08-12T08:51:13.271Z,97654.63
2022-08-12T09:01:20.865Z,97647.78
2022-08-12T09:12:07.059Z,97639.69
2022-08-12T09:22:02.663Z,97655.34
2022-08-12T09:32:09.386Z,97637.13
2022-08-12T09:42:49.290Z,97641.63
2022-08-12T09:53:35.989Z,97632.75
2022-08-12T10:04:03.449Z,97628.66
2022-08-12T10:14:05.226Z,97632.56
2022-08-12T10:24:09.688Z,97626.47
2022-08-12T10:34:26.701Z,97625.94
2022-08-12T10:44:29.205Z,97621.63
2022-08-12T10:54:33.348Z,97625.03
2022-08-12T11:04:45.038Z,97619.19
2022-08-12T11:14:52.118Z,97601.53
2022-08-12T11:24:55.424Z,97583.91
2022-08-12T11:34:59.311Z,97572.44
2022-08-12T11:45:00.989Z,97570.97
2022-08-12T11:55:02.606Z,97564.75
2022-08-12T12:05:04.419Z,97549.00
2022-08-12T12:15:09.561Z,97546.63
2022-08-12T12:25:12.906Z,97534.50
2022-08-12T12:36:06.303Z,97519.38
2022-08-12T12:45:39.093Z,97516.31
2022-08-12T12:55:41.497Z,97500.72
2022-08-12T13:05:43.411Z,97491.53
2022-08-12T13:15:49.271Z,97492.84
2022-08-12T13:25:50.753Z,97479.66
2022-08-12T13:36:06.103Z,97474.00
2022-08-12T13:46:13.691Z,97482.28
2022-08-12T13:56:15.403Z,97481.50
2022-08-12T14:06:17.017Z,97471.06
2022-08-12T14:16:37.745Z,97472.22
2022-08-12T14:26:41.591Z,97471.22
2022-08-12T14:36:43.075Z,97469.00
2022-08-12T14:46:44.535Z,97505.75
2022-08-12T14:57:20.168Z,97533.28
2022-08-12T15:07:34.333Z,97532.50
2022-08-12T15:17:39.045Z,97519.81
2022-08-12T15:28:11.105Z,97528.50
2022-08-12T15:38:13.816Z,97522.72
2022-08-12T15:48:20.616Z,97513.41
2022-08-12T15:58:23.958Z,97513.38
2022-08-12T16:08:29.845Z,97510.66
2022-08-12T16:18:37.331Z,97524.28
2022-08-12T16:28:38.887Z,97509.25
2022-08-12T16:38:40.774Z,97498.38
2022-08-12T16:48:48.092Z,97489.50
2022-08-12T16:58:52.180Z,97494.66
2022-08-12T17:09:02.348Z,97497.75
2022-08-12T17:19:09.451Z,97508.00
2022-08-12T17:29:16.499Z,97507.84
2022-08-12T17:39:18.394Z,97499.38
2022-08-12T17:50:02.125Z,97515.19
2022-08-12T17:59:47.799Z,97512.38
2022-08-12T18:09:52.929Z,97523.13
2022-08-12T18:20:05.723Z,97527.81
2022-08-12T18:30:09.693Z,97538.69
2022-08-12T18:40:31.478Z,97542.75
2022-08-12T18:50:48.861Z,97542.56
2022-08-12T19:00:53.181Z,97547.69
2022-08-12T19:11:17.071Z,97555.06
2022-08-12T19:21:20.260Z,97566.22
2022-08-12T19:31:45.397Z,97573.19
2022-08-12T19:42:01.828Z,97571.34
2022-08-12T19:52:10.201Z,97582.31
2022-08-12T20:02:14.615Z,97590.25
2022-08-12T20:12:31.834Z,97593.50
2022-08-12T20:22:34.934Z,97585.66
2022-08-12T20:32:47.667Z,97584.66
2022-08-12T20:42:50.587Z,97590.31
2022-08-12T20:52:52.161Z,97594.91
2022-08-12T21:03:13.637Z,97591.66
2022-08-12T21:13:20.464Z,97596.25
2022-08-12T21:23:23.004Z,97587.91
2022-08-12T21:33:24.786Z,97583.47
2022-08-12T21:43:44.859Z,97585.06
2022-08-12T21:54:07.036Z,97583.50
2022-08-12T22:04:28.933Z,97591.38
2022-08-12T22:14:30.957Z,97589.16
2022-08-12T22:24:34.094Z,97597.97
2022-08-12T22:34:35.544Z,97597.78
2022-08-12T22:44:56.780Z,97588.91
2022-08-12T22:55:04.094Z,97576.78
2022-08-12T23:05:08.690Z,97575.34
2022-08-12T23:15:12.067Z,97565.44
2022-08-12T23:25:20.836Z,97561.78
2022-08-12T23:35:22.890Z,97543.66
2022-08-12T23:45:30.841Z,97538.75
2022-08-12T23:55:40.773Z,97547.06
